Marion, IN

10:47 AM EST on December 07, 2016 (GMT -0500)
Marion Municipal

Weather History for KMZZ - November, 2011

Change the Weather History Date:

Sunday, November 27, 2011

  Actual Average (KMIE) Record (KMIE)
Temperature  
Mean Temperature 48 °F 38 °F  
Max Temperature 58 °F 45 °F 65 °F (1990)
Min Temperature 38 °F 30 °F 12 °F (1991)
Degree Days  
Heating Degree Days 17 28  
Month to date heating degree days 586  
Since 1 July heating degree days 1050  
Cooling Degree Days 0 0  
Month to date cooling degree days 0  
Year to date cooling degree days 955  
Moisture  
Dew Point 39 °F    
Average Humidity 76    
Maximum Humidity 81    
Minimum Humidity 53    
Precipitation  
Precipitation 0.36 in 0.12 in 1.25 in (1966)
Month to date precipitation 3.12  
Year to date precipitation 36.91  
Sea Level Pressure  
Sea Level Pressure 29.87 in    
Wind  
Wind Speed 12 mph (WNW)    
Max Wind Speed 18 mph    
Max Gust Speed 25 mph    
Visibility 8 miles    
Events Rain    
T = Trace of Precipitation, MM = Missing Value Source: NWS Daily Summary

Daily Weather History Graph

Daily Weather History Graph

Search for Another Location

Airport or City:

Trip Planner

Search our weather history database for the weather conditions in past years. The results will help you decide how hot, cold, wet, or windy it might be!

Date:

Astronomy

Nov. 27, 2011 Rise Set
Actual Time 7:42 AM EST 5:18 PM EST
Civil Twilight 7:12 AM EST 5:48 PM EST
Nautical Twilight 6:38 AM EST 6:21 PM EST
Astronomical Twilight 6:05 AM EST 6:54 PM EST
Moon 10:06 AM EST (11/27) 7:55 PM EST (11/27)
Length of Visible Light 10h 35m
Length of Day
9h 35m
Waxing Crescent, 8% of the Moon is Illuminated
Nov 27
Waxing Crescent
Dec 2
First Quarter
Dec 10
Full
Dec 17
Last Quarter
Dec 24
New

Hourly Weather History & Observations

Time (EST) Temp. Windchill Dew Point Humidity Pressure Visibility Wind Dir Wind Speed Gust Speed Precip Events Conditions
12:15 AM 58.1 °F - 41.0 °F 53% 29.83 in 10.0 mi SSW 12.7 mph - N/A   Overcast
12:35 AM 58.1 °F - 41.2 °F 53% 29.83 in 7.0 mi SSW 18.4 mph 25.3 mph N/A   Mostly Cloudy
12:55 AM 57.7 °F - 41.9 °F 56% 29.82 in 10.0 mi SSW 13.8 mph - N/A   Mostly Cloudy
1:15 AM 57.7 °F - 42.3 °F 56% 29.82 in 10.0 mi SSW 11.5 mph - N/A   Overcast
2:15 AM 56.1 °F - 44.2 °F 64% 29.80 in 10.0 mi South 11.5 mph - N/A   Overcast
2:35 AM 56.5 °F - 44.1 °F 63% 29.80 in 10.0 mi South 11.5 mph - N/A   Overcast
2:55 AM 56.5 °F - 43.5 °F 62% 29.80 in 10.0 mi South 12.7 mph 17.3 mph N/A   Overcast
3:15 AM 56.3 °F - 43.9 °F 63% 29.79 in 10.0 mi SSW 11.5 mph - N/A   Overcast
3:35 AM 55.6 °F - 44.8 °F 67% 29.79 in 10.0 mi SSW 11.5 mph - N/A   Overcast
3:55 AM 55.0 °F - 45.5 °F 70% 29.79 in 7.0 mi South 11.5 mph - N/A Rain Light Rain
4:15 AM 54.5 °F - 46.4 °F 74% 29.78 in 7.0 mi South 11.5 mph - 0.01 in Rain Light Rain
4:35 AM 54.7 °F - 47.3 °F 76% 29.78 in 7.0 mi South 11.5 mph - 0.02 in Rain Light Rain
4:55 AM 54.5 °F - 47.5 °F 77% 29.79 in 7.0 mi SSW 11.5 mph 16.1 mph 0.02 in Rain Light Rain
5:15 AM 54.1 °F - 47.8 °F 79% 29.79 in 7.0 mi SSW 11.5 mph - 0.01 in Rain Light Rain
5:35 AM 54.1 °F - 48.2 °F 80% 29.79 in 7.0 mi SSW 11.5 mph - 0.02 in Rain Light Rain
5:55 AM 53.4 °F - 47.3 °F 80% 29.80 in 7.0 mi West 13.8 mph - 0.02 in   Overcast
6:15 AM 48.4 °F - 42.1 °F 79% 29.79 in 7.0 mi WNW 11.5 mph - 0.02 in Rain Light Rain
6:35 AM 46.9 °F - 41.2 °F 80% 29.79 in 7.0 mi WNW 8.1 mph - 0.03 in Rain Light Rain
6:55 AM 46.6 °F - 40.8 °F 80% 29.80 in 10.0 mi WNW 9.2 mph - 0.04 in   Overcast
7:15 AM 46.0 °F 41.0 °F 40.5 °F 81% 29.80 in 5.0 mi West 10.4 mph - 0.01 in Rain Light Rain
7:35 AM 45.1 °F 40.3 °F 39.6 °F 81% 29.80 in 7.0 mi WNW 9.2 mph - 0.02 in   Overcast
7:55 AM 44.6 °F 40.2 °F 39.2 °F 81% 29.81 in 5.0 mi WNW 8.1 mph - 0.02 in   Haze
8:55 AM 43.7 °F 37.7 °F 38.3 °F 81% 29.84 in 2.5 mi WNW 11.5 mph - 0.05 in Rain Light Rain
9:15 AM 43.7 °F 39.1 °F 37.9 °F 80% 29.84 in 4.0 mi WNW 8.1 mph - 0.01 in Rain Light Rain
9:35 AM 43.5 °F 37.5 °F 37.9 °F 81% 29.84 in 5.0 mi WNW 11.5 mph - 0.04 in Rain Rain
9:55 AM 43.5 °F 38.9 °F 37.8 °F 80% 29.84 in 4.0 mi NW 8.1 mph - 0.06 in Rain Light Rain
10:15 AM 43.3 °F 37.7 °F 37.8 °F 81% 29.84 in 4.0 mi WNW 10.4 mph - 0.02 in Rain Light Rain
10:35 AM 43.3 °F 38.6 °F 37.9 °F 81% 29.85 in 7.0 mi WNW 8.1 mph - 0.04 in Rain Light Rain
10:55 AM 43.7 °F 38.1 °F 38.1 °F 81% 29.87 in 5.0 mi West 10.4 mph - 0.05 in Rain Light Rain
11:15 AM 43.7 °F 38.1 °F 38.3 °F 81% 29.88 in 4.0 mi West 10.4 mph - 0.01 in   Haze
11:35 AM 43.9 °F 39.3 °F 38.3 °F 81% 29.86 in 7.0 mi WNW 8.1 mph - 0.02 in Rain Light Rain
11:55 AM 44.4 °F 38.2 °F 38.7 °F 80% 29.87 in 7.0 mi WNW 12.7 mph 16.1 mph 0.02 in   Overcast
12:15 PM 44.4 °F 38.6 °F 38.5 °F 80% 29.87 in 5.0 mi WNW 11.5 mph - N/A   Haze
12:35 PM 44.4 °F 39.5 °F 38.5 °F 80% 29.86 in 5.0 mi WNW 9.2 mph - 0.02 in Rain Light Rain
1:15 PM 44.6 °F 38.8 °F 38.7 °F 80% 29.87 in 7.0 mi WNW 11.5 mph - N/A Rain Light Rain
1:55 PM 45.0 °F 39.3 °F 38.8 °F 79% 29.85 in 10.0 mi NW 11.5 mph 18.4 mph 0.01 in   Overcast
2:15 PM 45.1 °F 39.1 °F 39.0 °F 79% 29.86 in 10.0 mi WNW 12.7 mph - N/A   Overcast
2:35 PM 45.0 °F 38.9 °F 38.7 °F 79% 29.86 in 7.0 mi WNW 12.7 mph 17.3 mph N/A Rain Light Rain
2:55 PM 45.0 °F 38.5 °F 38.5 °F 78% 29.86 in 10.0 mi NW 13.8 mph 17.3 mph N/A   Overcast
3:15 PM 44.6 °F 38.4 °F 38.3 °F 79% 29.88 in 7.0 mi NW 12.7 mph - 0.01 in   Overcast
3:35 PM 44.4 °F 37.5 °F 37.9 °F 78% 29.89 in 7.0 mi NW 15.0 mph - 0.01 in Rain Light Rain
3:55 PM 43.9 °F 37.5 °F 37.4 °F 78% 29.89 in 7.0 mi NW 12.7 mph - 0.01 in Rain Light Rain
4:15 PM 43.3 °F 38.1 °F 37.0 °F 78% 29.91 in 10.0 mi NW 9.2 mph - N/A Rain Light Rain
4:35 PM 43.0 °F 36.8 °F 36.7 °F 78% 29.92 in 7.0 mi NW 11.5 mph - 0.01 in Rain Light Rain
4:55 PM 42.8 °F 37.0 °F 36.5 °F 78% 29.93 in 7.0 mi NW 10.4 mph - 0.02 in Rain Light Rain
5:35 PM 42.3 °F 36.3 °F 36.0 °F 78% 29.94 in 7.0 mi NW 10.4 mph - 0.01 in   Overcast
5:55 PM 41.9 °F 35.9 °F 35.6 °F 78% 29.94 in 7.0 mi NW 10.4 mph - 0.01 in   Overcast
6:15 PM 41.9 °F 35.9 °F 35.6 °F 78% 29.96 in 10.0 mi NW 10.4 mph - N/A Rain Light Rain
6:35 PM 41.9 °F 35.9 °F 35.8 °F 79% 29.96 in 7.0 mi NW 10.4 mph - 0.01 in Rain Light Rain
6:55 PM 41.4 °F 34.7 °F 35.4 °F 79% 29.96 in 10.0 mi NNW 11.5 mph 19.6 mph 0.01 in   Overcast
7:15 PM 41.2 °F 33.7 °F 34.7 °F 78% 29.96 in 10.0 mi NNW 13.8 mph - N/A   Overcast
7:35 PM 40.5 °F 35.1 °F 34.2 °F 78% 29.97 in 7.0 mi NNW 8.1 mph - N/A   Overcast
8:15 PM 39.6 °F 33.0 °F 33.4 °F 79% 30.00 in 10.0 mi NNW 10.4 mph - N/A   Overcast
8:35 PM 39.2 °F 32.5 °F 32.9 °F 78% 30.01 in 10.0 mi NNW 10.4 mph 17.3 mph N/A   Overcast
8:55 PM 39.2 °F 32.0 °F 32.4 °F 76% 30.01 in 10.0 mi NNW 11.5 mph - N/A Rain Light Rain
9:15 PM 38.7 °F 32.9 °F 32.2 °F 78% 30.01 in 7.0 mi North 8.1 mph - N/A Rain Light Rain
9:35 PM 38.5 °F 32.7 °F 32.2 °F 78% 30.02 in 10.0 mi North 8.1 mph - N/A Rain Light Rain
9:55 PM 38.3 °F 31.4 °F 32.0 °F 78% 30.01 in 10.0 mi North 10.4 mph - 0.01 in Rain Light Rain
10:15 PM 38.1 °F 31.2 °F 32.0 °F 79% 30.03 in 10.0 mi North 10.4 mph - N/A Rain Light Rain
10:35 PM 37.8 °F 32.5 °F 32.0 °F 80% 30.04 in 10.0 mi North 6.9 mph - N/A Rain Light Rain
10:55 PM 37.6 °F 31.6 °F 32.0 °F 80% 30.03 in 10.0 mi North 8.1 mph - 0.01 in Rain Light Rain
11:15 PM 37.4 °F 29.3 °F 31.8 °F 80% 30.02 in 10.0 mi North 12.7 mph - N/A Rain Light Rain
11:35 PM 37.2 °F 30.0 °F 31.6 °F 80% 30.04 in 10.0 mi North 10.4 mph - N/A Rain Light Rain
11:55 PM 36.9 °F 30.1 °F 31.3 °F 80% 30.03 in 10.0 mi North 9.2 mph - N/A Rain Light Rain